Time;durP1;ratioP1;P1;durP2;ratioP2;P2;SDS_P1;SDS_P2;PMS_P1;PMS_P2;Temp;Humidity;BMP_temperature;BMP_pressure;BME280_temperature;BME280_humidity;BME280_pressure;Samples;Min_cycle;Max_cycle;Signal;HPM_P1;HPM_P2
2022/12/04 00:01:59;;;;;;;44.87;20.93;;;1.60;99.90;;;;;;5060500;28;20706;-69
2022/12/04 00:04:27;;;;;;;49.27;21.40;;;1.60;99.90;;;;;;5062990;28;20715;-69
2022/12/04 00:06:55;;;;;;;53.60;21.53;;;1.60;99.90;;;;;;5054243;28;20212;-71
2022/12/04 00:09:22;;;;;;;51.50;20.67;;;1.60;99.90;;;;;;5051171;28;20217;-70
2022/12/04 00:11:49;;;;;;;45.40;20.50;;;1.60;99.90;;;;;;5051076;28;20651;-70
2022/12/04 00:14:15;;;;;;;45.20;19.67;;;1.60;99.90;;;;;;5064848;28;20205;-69
2022/12/04 00:16:42;;;;;;;49.20;20.07;;;1.60;99.90;;;;;;5047440;28;20659;-69
2022/12/04 00:19:09;;;;;;;44.93;20.87;;;1.60;99.90;;;;;;5052507;28;20211;-69
2022/12/04 00:21:37;;;;;;;47.73;20.07;;;1.60;99.90;;;;;;5058309;28;20217;-69
2022/12/04 00:24:05;;;;;;;57.90;21.80;;;1.60;99.90;;;;;;5052201;28;20207;-70
2022/12/04 00:26:32;;;;;;;50.67;21.80;;;1.60;99.90;;;;;;5054971;28;20214;-69
2022/12/04 00:28:59;;;;;;;45.43;21.47;;;1.60;99.90;;;;;;5051061;28;20643;-71
2022/12/04 00:31:29;;;;;;;54.70;22.07;;;1.60;99.90;;;;;;5049291;28;20217;-71
2022/12/04 00:33:55;;;;;;;55.17;22.57;;;1.60;99.90;;;;;;5044759;28;20296;-69
2022/12/04 00:36:25;;;;;;;50.40;20.47;;;1.60;99.90;;;;;;5048660;28;20212;-71
2022/12/04 00:38:53;;;;;;;47.27;19.87;;;1.60;99.90;;;;;;5050046;28;20206;-69
2022/12/04 00:41:23;;;;;;;46.27;20.90;;;1.60;99.90;;;;;;5053025;28;20221;-71
2022/12/04 00:43:49;;;;;;;45.77;21.70;;;1.60;99.90;;;;;;5050426;28;20212;-70
2022/12/04 00:46:17;;;;;;;49.70;21.07;;;1.60;99.90;;;;;;5035472;28;20211;-70
2022/12/04 00:48:44;;;;;;;47.87;21.17;;;1.60;99.90;;;;;;5053841;28;20232;-69
2022/12/04 00:51:14;;;;;;;40.27;19.10;;;1.60;99.90;;;;;;5052341;28;20204;-69
2022/12/04 00:53:41;;;;;;;40.13;19.17;;;1.60;99.90;;;;;;5052939;28;20188;-70
2022/12/04 00:56:13;;;;;;;41.33;20.07;;;1.50;99.90;;;;;;5059137;28;20202;-70
2022/12/04 00:58:40;;;;;;;43.67;19.17;;;1.50;99.90;;;;;;5053771;28;20210;-70
2022/12/04 01:01:09;;;;;;;49.47;21.47;;;1.50;99.90;;;;;;5052340;28;20244;-70
2022/12/04 01:03:35;;;;;;;45.90;20.33;;;1.60;99.90;;;;;;5052995;28;20203;-70
2022/12/04 01:06:05;;;;;;;54.67;22.53;;;1.60;99.90;;;;;;5057056;28;20214;-71
2022/12/04 01:08:33;;;;;;;48.77;21.30;;;1.60;99.90;;;;;;5051487;28;20210;-70
2022/12/04 01:11:00;;;;;;;46.70;21.20;;;1.60;99.90;;;;;;5051914;28;20206;-69
2022/12/04 01:13:28;;;;;;;45.87;21.10;;;1.60;99.90;;;;;;5052553;28;20217;-69
2022/12/04 01:15:55;;;;;;;47.90;20.10;;;1.50;99.90;;;;;;5053642;28;20225;-70
2022/12/04 01:18:22;;;;;;;53.27;22.53;;;1.50;99.90;;;;;;5053629;28;20237;-70
2022/12/04 01:20:50;;;;;;;48.97;20.70;;;1.50;99.90;;;;;;5061637;28;20209;-69
2022/12/04 01:23:17;;;;;;;38.83;16.77;;;1.50;99.90;;;;;;5048409;28;20779;-70
2022/12/04 01:25:51;;;;;;;44.00;20.33;;;1.60;99.90;;;;;;5054146;28;20212;-69
2022/12/04 01:28:18;;;;;;;44.80;20.47;;;1.60;99.90;;;;;;5053537;28;20216;-68
2022/12/04 01:30:55;;;;;;;46.03;21.97;;;1.60;99.90;;;;;;5050604;28;20206;-69
2022/12/04 01:33:22;;;;;;;44.37;20.33;;;1.60;99.90;;;;;;5053787;28;20201;-69
2022/12/04 01:35:53;;;;;;;42.10;19.23;;;1.50;99.90;;;;;;5049598;28;20202;-69
2022/12/04 01:38:19;;;;;;;44.53;18.27;;;1.50;99.90;;;;;;5053323;28;20210;-70
2022/12/04 01:40:46;;;;;;;41.63;18.90;;;1.50;99.90;;;;;;5050622;28;20202;-71
2022/12/04 01:43:13;;;;;;;43.97;18.83;;;1.50;99.90;;;;;;5040281;28;20209;-69
2022/12/04 01:45:42;;;;;;;40.33;18.50;;;1.50;99.90;;;;;;5056040;28;20212;-67
2022/12/04 01:48:16;;;;;;;40.87;18.07;;;1.60;99.90;;;;;;5053930;28;20206;-70
2022/12/04 01:50:45;;;;;;;39.63;19.00;;;1.50;99.90;;;;;;5057751;28;20213;-70
2022/12/04 01:53:13;;;;;;;42.77;18.97;;;1.50;99.90;;;;;;5047111;28;20206;-69
2022/12/04 01:55:40;;;;;;;41.23;19.70;;;1.50;99.90;;;;;;5042341;28;20229;-70
2022/12/04 01:58:08;;;;;;;40.00;19.00;;;1.50;99.90;;;;;;5051433;28;20210;-69
2022/12/04 02:00:35;;;;;;;40.03;18.63;;;1.50;99.90;;;;;;5040042;28;20330;-68
2022/12/04 02:03:02;;;;;;;40.03;17.93;;;1.50;99.90;;;;;;5059709;28;20220;-69
2022/12/04 02:05:31;;;;;;;38.50;18.47;;;1.50;99.90;;;;;;5050573;28;20209;-69
2022/12/04 02:08:04;;;;;;;38.97;18.07;;;1.50;99.90;;;;;;5054354;28;20209;-69
2022/12/04 02:10:40;;;;;;;40.97;18.50;;;1.60;99.90;;;;;;5051470;28;20729;-70
2022/12/04 02:13:14;;;;;;;42.37;19.30;;;1.50;99.90;;;;;;5051876;28;20221;-70
2022/12/04 02:15:47;;;;;;;39.67;17.60;;;1.50;99.90;;;;;;5052445;28;20290;-69
2022/12/04 02:18:20;;;;;;;40.43;18.53;;;1.50;99.90;;;;;;5046136;28;20213;-69
2022/12/04 02:20:55;;;;;;;41.20;17.93;;;1.60;99.90;;;;;;5048099;28;20215;-70
2022/12/04 02:23:49;;;;;;;39.67;18.87;;;1.50;99.90;;;;;;5046631;28;20236;-70
2022/12/04 02:26:32;;;;;;;43.50;18.47;;;1.50;99.90;;;;;;5051199;28;20292;-70
2022/12/04 02:29:06;;;;;;;50.87;18.90;;;1.50;99.90;;;;;;5048412;28;20194;-69
2022/12/04 02:31:39;;;;;;;42.53;19.33;;;1.50;99.90;;;;;;5046533;28;20681;-70
2022/12/04 02:34:12;;;;;;;42.57;18.97;;;1.40;99.90;;;;;;5054246;28;20205;-68
2022/12/04 02:36:45;;;;;;;44.33;18.73;;;1.40;99.90;;;;;;5054806;28;20598;-69
2022/12/04 02:39:19;;;;;;;37.47;18.17;;;1.50;99.90;;;;;;5049441;28;20202;-70
2022/12/04 02:41:53;;;;;;;41.57;18.50;;;1.50;99.90;;;;;;5052558;28;20217;-69
2022/12/04 02:44:25;;;;;;;44.47;18.40;;;1.50;99.90;;;;;;5038339;28;20206;-70
2022/12/04 02:46:56;;;;;;;44.77;18.80;;;1.50;99.90;;;;;;5046542;28;20202;-72
2022/12/04 02:49:27;;;;;;;37.50;18.73;;;1.50;99.90;;;;;;5051851;28;20198;-71
2022/12/04 02:51:58;;;;;;;41.90;17.13;;;1.50;99.90;;;;;;5057029;28;20193;-71
2022/12/04 02:54:29;;;;;;;38.07;16.57;;;1.60;99.90;;;;;;5052517;28;20206;-69
2022/12/04 02:56:58;;;;;;;48.97;20.50;;;1.60;99.90;;;;;;5051685;28;20686;-70
2022/12/04 02:59:30;;;;;;;38.37;19.30;;;1.50;99.90;;;;;;5050381;28;20229;-69
2022/12/04 03:02:01;;;;;;;44.37;19.23;;;1.60;99.90;;;;;;5050314;28;20237;-70
2022/12/04 03:04:30;;;;;;;43.47;19.23;;;1.50;99.90;;;;;;5055819;28;20197;-69
2022/12/04 03:07:02;;;;;;;36.13;17.40;;;1.60;99.90;;;;;;5039785;28;20297;-70
2022/12/04 03:09:34;;;;;;;37.30;16.97;;;1.60;99.90;;;;;;5052729;28;20197;-69
2022/12/04 03:12:07;;;;;;;41.30;17.80;;;1.60;99.90;;;;;;5049060;28;20201;-69
2022/12/04 03:14:40;;;;;;;39.57;17.53;;;1.60;99.90;;;;;;5051526;28;20252;-69
2022/12/04 03:17:10;;;;;;;39.90;19.30;;;1.50;99.90;;;;;;5051332;28;20214;-71
2022/12/04 03:19:43;;;;;;;37.30;15.73;;;1.60;99.90;;;;;;5057039;28;20197;-68
2022/12/04 03:22:13;;;;;;;40.13;17.47;;;1.60;99.90;;;;;;5048189;28;20740;-69
2022/12/04 03:24:45;;;;;;;37.33;16.97;;;1.60;99.90;;;;;;5055558;28;20205;-69
2022/12/04 03:27:16;;;;;;;37.07;16.70;;;1.60;99.90;;;;;;5051147;28;20198;-70
2022/12/04 03:29:50;;;;;;;31.00;14.40;;;1.60;99.90;;;;;;5049449;28;20558;-70
2022/12/04 03:32:24;;;;;;;34.27;15.37;;;1.60;99.90;;;;;;5044813;28;20213;-69
2022/12/04 03:34:56;;;;;;;33.53;15.53;;;1.60;99.90;;;;;;5057140;28;20658;-69
2022/12/04 03:37:32;;;;;;;35.90;17.10;;;1.60;99.90;;;;;;5049718;28;20663;-69
2022/12/04 03:40:03;;;;;;;30.73;15.53;;;1.50;99.90;;;;;;5045519;28;20200;-71
2022/12/04 03:42:38;;;;;;;33.80;15.33;;;1.60;99.90;;;;;;5040530;28;20217;-69
2022/12/04 03:45:14;;;;;;;33.57;14.77;;;1.50;99.90;;;;;;5040340;28;20217;-70
2022/12/04 03:47:45;;;;;;;39.43;16.23;;;1.50;99.90;;;;;;5060084;28;20202;-72
2022/12/04 03:50:19;;;;;;;35.33;15.37;;;1.50;99.90;;;;;;5065968;28;20213;-71
2022/12/04 03:52:52;;;;;;;31.17;15.17;;;1.50;99.90;;;;;;5073797;28;20209;-71
2022/12/04 03:55:25;;;;;;;40.20;16.67;;;1.50;99.90;;;;;;5055540;28;20205;-71
2022/12/04 03:57:56;;;;;;;34.77;16.13;;;1.50;99.90;;;;;;5066282;28;20228;-70
2022/12/04 04:00:25;;;;;;;34.03;15.63;;;1.50;99.90;;;;;;5061403;28;20240;-72
2022/12/04 04:02:57;;;;;;;40.47;17.03;;;1.50;99.90;;;;;;5067452;28;20789;-72
2022/12/04 04:05:25;;;;;;;37.47;16.93;;;1.50;99.90;;;;;;5063893;28;20546;-71
2022/12/04 04:08:24;;;;;;;35.63;16.83;;;1.40;99.90;;;;;;5052288;28;20225;-71
2022/12/04 04:10:44;;;;;;;36.37;17.57;;;1.50;99.90;;;;;;5062446;28;20206;-71
2022/12/04 04:24:29;;;;;;;29.33;13.87;;;1.50;99.90;;;;;;5079604;28;20278;-71
2022/12/04 04:26:58;;;;;;;32.37;14.27;;;1.50;99.90;;;;;;5062985;28;20202;-72
2022/12/04 04:29:26;;;;;;;33.70;14.77;;;1.50;99.90;;;;;;5068564;28;20212;-69
2022/12/04 04:31:59;;;;;;;35.40;15.07;;;1.50;99.90;;;;;;5062524;28;20210;-70
2022/12/04 04:34:36;;;;;;;29.00;14.03;;;1.50;99.90;;;;;;5065015;28;20572;-71
2022/12/04 04:37:10;;;;;;;25.13;11.33;;;1.50;99.90;;;;;;5064114;28;20217;-69
2022/12/04 04:39:42;;;;;;;31.80;14.87;;;1.50;99.90;;;;;;5063581;28;20217;-70
2022/12/04 04:42:16;;;;;;;29.87;14.03;;;1.50;99.90;;;;;;5061089;28;20222;-71
2022/12/04 04:44:47;;;;;;;31.00;14.57;;;1.50;99.90;;;;;;5075931;28;20190;-68
2022/12/04 04:47:21;;;;;;;28.77;14.07;;;1.40;99.90;;;;;;5068956;28;20209;-70
2022/12/04 04:49:51;;;;;;;29.93;13.87;;;1.40;99.90;;;;;;5075996;28;20197;-70
2022/12/04 04:52:21;;;;;;;31.90;15.97;;;1.40;99.90;;;;;;5068385;28;20185;-71
2022/12/04 04:54:48;;;;;;;32.63;15.10;;;1.50;99.90;;;;;;5068359;28;20202;-71
2022/12/04 04:57:26;;;;;;;28.23;14.40;;;1.40;99.90;;;;;;5060326;28;20213;-70
2022/12/04 04:59:53;;;;;;;37.60;17.70;;;1.40;99.90;;;;;;5069637;28;20233;-70
2022/12/04 05:02:21;;;;;;;32.73;16.33;;;1.40;99.90;;;;;;5083714;28;20249;-69
2022/12/04 05:04:48;;;;;;;32.93;16.13;;;1.40;99.90;;;;;;5061390;28;20205;-70
2022/12/04 05:07:14;;;;;;;37.43;16.73;;;1.40;99.90;;;;;;5060848;28;20217;-72
2022/12/04 05:09:41;;;;;;;37.03;17.33;;;1.40;99.90;;;;;;5052721;28;20210;-71
2022/12/04 05:12:08;;;;;;;35.57;16.27;;;1.40;99.90;;;;;;5061024;28;20230;-71
2022/12/04 05:14:35;;;;;;;30.87;16.27;;;1.40;99.90;;;;;;5063095;28;20220;-70
2022/12/04 05:17:04;;;;;;;34.37;17.80;;;1.40;99.90;;;;;;5068816;28;20210;-70
2022/12/04 05:22:19;;;;;;;35.97;16.80;;;1.40;99.90;;;;;;5067959;28;20224;-71
2022/12/04 05:24:45;;;;;;;34.00;16.43;;;1.40;99.90;;;;;;5060975;28;20197;-71
2022/12/04 05:27:12;;;;;;;34.80;16.77;;;1.50;99.90;;;;;;5075316;28;20212;-69
2022/12/04 05:29:39;;;;;;;31.57;15.97;;;1.40;99.90;;;;;;5071606;28;20206;-69
2022/12/04 05:32:06;;;;;;;36.40;16.30;;;1.40;99.90;;;;;;5076728;28;20633;-70
2022/12/04 05:34:34;;;;;;;41.27;17.00;;;1.40;99.90;;;;;;5068921;28;20236;-71
2022/12/04 05:37:01;;;;;;;34.93;16.63;;;1.40;99.90;;;;;;5067257;28;20205;-71
2022/12/04 05:39:28;;;;;;;30.17;15.03;;;1.50;99.90;;;;;;5062582;28;20665;-71
2022/12/04 05:41:54;;;;;;;32.73;15.70;;;1.40;99.90;;;;;;5048268;28;20632;-71
2022/12/04 05:44:21;;;;;;;33.13;16.00;;;1.40;99.90;;;;;;5054030;28;20202;-73
2022/12/04 05:46:48;;;;;;;33.70;15.37;;;1.50;99.90;;;;;;5038997;28;20209;-71
2022/12/04 05:49:14;;;;;;;31.93;15.23;;;1.50;99.90;;;;;;5051558;28;20217;-72
2022/12/04 05:51:43;;;;;;;33.40;16.17;;;1.50;99.90;;;;;;5056548;28;20206;-73
2022/12/04 05:54:09;;;;;;;34.70;15.43;;;1.50;99.90;;;;;;5058405;28;20202;-71
2022/12/04 05:56:36;;;;;;;29.83;15.47;;;1.50;99.90;;;;;;5075469;28;20197;-70
2022/12/04 05:59:03;;;;;;;35.67;16.10;;;1.50;99.90;;;;;;5063523;28;20209;-72
2022/12/04 06:01:30;;;;;;;34.23;16.70;;;1.50;99.90;;;;;;5049570;28;20254;-72
2022/12/04 06:03:56;;;;;;;30.40;14.83;;;1.60;99.90;;;;;;5050767;28;20230;-72
2022/12/04 06:06:25;;;;;;;30.83;15.73;;;1.50;99.90;;;;;;5056767;28;20210;-73
2022/12/04 06:08:54;;;;;;;32.67;16.53;;;1.50;99.90;;;;;;5068184;28;20625;-74
2022/12/04 06:11:23;;;;;;;34.47;14.83;;;1.50;99.90;;;;;;5053580;28;20210;-73
2022/12/04 06:13:50;;;;;;;36.87;15.83;;;1.50;99.90;;;;;;5056666;28;20213;-71
2022/12/04 06:16:19;;;;;;;35.97;15.57;;;1.50;99.90;;;;;;5056547;28;20206;-74
2022/12/04 06:18:49;;;;;;;33.53;15.20;;;1.50;99.90;;;;;;5046502;28;20203;-69
2022/12/04 06:21:16;;;;;;;28.03;13.80;;;1.50;99.90;;;;;;5047531;28;20211;-72
2022/12/04 06:23:43;;;;;;;35.17;14.90;;;1.40;99.90;;;;;;5043886;28;20222;-73
2022/12/04 06:26:11;;;;;;;31.40;15.30;;;1.50;99.90;;;;;;5036447;28;20217;-74
2022/12/04 06:28:38;;;;;;;32.13;15.00;;;1.40;99.90;;;;;;5047099;28;20713;-71
2022/12/04 06:31:08;;;;;;;35.90;15.93;;;1.50;99.90;;;;;;5038106;28;20215;-67
2022/12/04 06:33:35;;;;;;;31.27;14.87;;;1.40;99.90;;;;;;5060012;28;20198;-70
2022/12/04 06:36:04;;;;;;;31.27;14.90;;;1.50;99.90;;;;;;5054700;28;20210;-69
2022/12/04 06:38:31;;;;;;;33.57;15.20;;;1.50;99.90;;;;;;5063664;28;20230;-73
2022/12/04 06:40:58;;;;;;;38.67;16.83;;;1.50;99.90;;;;;;5062009;28;20208;-74
2022/12/04 06:43:26;;;;;;;30.77;15.20;;;1.50;99.90;;;;;;5069764;28;20240;-74
2022/12/04 06:46:00;;;;;;;33.70;16.00;;;1.50;99.90;;;;;;5059404;28;20189;-73
2022/12/04 06:48:27;;;;;;;33.63;16.77;;;1.50;99.90;;;;;;5055874;28;20845;-74
2022/12/04 06:50:58;;;;;;;31.27;14.70;;;1.50;99.90;;;;;;5049604;28;20605;-74
2022/12/04 06:53:26;;;;;;;32.40;16.10;;;1.50;99.90;;;;;;5040208;28;20213;-77
2022/12/04 06:55:53;;;;;;;29.87;15.70;;;1.50;99.90;;;;;;5044057;28;20545;-74
2022/12/04 06:58:20;;;;;;;37.47;16.70;;;1.60;99.90;;;;;;5048997;28;20240;-74
2022/12/04 07:00:48;;;;;;;40.57;18.00;;;1.50;99.90;;;;;;5051667;28;20269;-76
2022/12/04 07:03:15;;;;;;;34.90;16.93;;;1.60;99.90;;;;;;5052437;28;20225;-72
2022/12/04 07:05:42;;;;;;;31.60;14.70;;;1.40;99.90;;;;;;5054850;28;20202;-75
2022/12/04 07:08:09;;;;;;;33.60;15.50;;;1.40;99.90;;;;;;5059334;28;20215;-73
2022/12/04 07:10:36;;;;;;;36.07;15.50;;;1.40;99.90;;;;;;5063814;28;20221;-71
2022/12/04 07:13:03;;;;;;;36.97;16.47;;;1.40;99.90;;;;;;5066172;28;20273;-73
2022/12/04 07:15:30;;;;;;;34.07;16.00;;;1.40;99.90;;;;;;5057470;28;20190;-72
2022/12/04 07:17:58;;;;;;;40.57;17.13;;;1.40;99.90;;;;;;5055662;28;20213;-74
2022/12/04 07:20:25;;;;;;;36.47;15.87;;;1.40;99.90;;;;;;5044316;28;20300;-73
2022/12/04 07:22:52;;;;;;;34.70;18.03;;;1.40;99.90;;;;;;5051773;28;20677;-73
2022/12/04 07:25:18;;;;;;;31.93;16.37;;;1.40;99.90;;;;;;5049414;28;20213;-74
2022/12/04 07:27:45;;;;;;;31.17;15.40;;;1.50;99.90;;;;;;5050739;28;20208;-74
2022/12/04 07:30:13;;;;;;;27.53;15.03;;;1.40;99.90;;;;;;5047804;28;20202;-74
2022/12/04 07:32:40;;;;;;;29.57;14.47;;;1.60;99.90;;;;;;5048445;28;20209;-73
2022/12/04 07:35:08;;;;;;;28.87;14.43;;;1.50;99.90;;;;;;5050416;28;20206;-73
2022/12/04 07:37:37;;;;;;;27.00;13.83;;;1.50;99.90;;;;;;5040332;28;20230;-74
2022/12/04 07:40:04;;;;;;;30.30;14.50;;;1.50;99.90;;;;;;5046648;28;20308;-72
2022/12/04 07:42:31;;;;;;;25.80;14.13;;;1.50;99.90;;;;;;5052954;28;20571;-76
2022/12/04 07:44:58;;;;;;;29.57;14.90;;;1.50;99.90;;;;;;5052447;28;20327;-76
2022/12/04 07:47:24;;;;;;;29.60;14.23;;;1.50;99.90;;;;;;5059909;28;20588;-75
2022/12/04 07:49:51;;;;;;;27.60;14.93;;;1.50;99.90;;;;;;5054458;28;20204;-70
2022/12/04 07:52:19;;;;;;;32.80;14.93;;;1.50;99.90;;;;;;5046172;28;20371;-74
2022/12/04 07:54:46;;;;;;;29.47;15.30;;;1.50;99.90;;;;;;5047809;28;20209;-71
2022/12/04 07:57:13;;;;;;;26.80;14.70;;;1.50;99.90;;;;;;5047519;28;20205;-74
2022/12/04 07:59:40;;;;;;;35.45;19.55;;;1.50;99.90;;;;;;5049342;28;20463;-71
2022/12/04 08:02:06;;;;;;;27.07;15.47;;;1.50;99.90;;;;;;5050671;28;20241;-70
2022/12/04 08:04:33;;;;;;;30.87;15.23;;;1.60;99.90;;;;;;5041216;28;20226;-71
2022/12/04 08:07:00;;;;;;;35.63;21.50;;;1.50;99.90;;;;;;5048870;28;20455;-73
2022/12/04 08:09:28;;;;;;;31.73;16.67;;;1.50;99.90;;;;;;5056054;28;20220;-69
2022/12/04 08:11:55;;;;;;;30.67;17.52;;;1.50;99.90;;;;;;5059326;28;20462;-70
2022/12/04 08:14:22;;;;;;;26.93;15.13;;;1.50;99.90;;;;;;5054405;28;20202;-72
2022/12/04 08:16:49;;;;;;;28.67;14.87;;;1.50;99.90;;;;;;5042846;28;20198;-70
2022/12/04 08:19:16;;;;;;;26.23;14.97;;;1.60;99.90;;;;;;5042525;28;20260;-69
2022/12/04 08:21:43;;;;;;;24.17;13.73;;;1.60;99.90;;;;;;5048892;28;20214;-68
2022/12/04 08:24:10;;;;;;;31.10;14.60;;;1.70;99.90;;;;;;5047819;28;20240;-68
2022/12/04 08:26:38;;;;;;;27.53;15.27;;;1.60;99.90;;;;;;5048002;28;20202;-69
2022/12/04 08:29:05;;;;;;;29.83;14.37;;;1.60;99.90;;;;;;5047702;28;20224;-70
2022/12/04 08:31:35;;;;;;;26.83;15.43;;;1.60;99.90;;;;;;5045913;28;20220;-68
2022/12/04 08:34:05;;;;;;;28.03;14.73;;;1.60;99.90;;;;;;5046417;28;20202;-68
2022/12/04 08:36:32;;;;;;;29.23;14.73;;;1.60;99.90;;;;;;5046295;28;20213;-68
2022/12/04 08:38:59;;;;;;;24.23;13.93;;;1.60;99.90;;;;;;5044828;28;20206;-67
2022/12/04 08:41:26;;;;;;;26.50;13.83;;;1.60;99.90;;;;;;5037988;28;20210;-69
2022/12/04 08:43:56;;;;;;;27.67;14.43;;;1.60;99.90;;;;;;5038843;28;20678;-71
2022/12/04 08:46:24;;;;;;;25.37;14.03;;;1.60;99.90;;;;;;5044162;28;20207;-70
2022/12/04 08:48:51;;;;;;;27.17;14.57;;;1.60;99.90;;;;;;5044245;28;20398;-67
2022/12/04 08:51:21;;;;;;;27.93;14.30;;;1.60;99.90;;;;;;5044803;28;20216;-68
2022/12/04 08:53:48;;;;;;;25.37;14.43;;;1.70;99.90;;;;;;5045603;28;20205;-68
2022/12/04 08:56:15;;;;;;;27.80;15.30;;;1.60;99.90;;;;;;5035860;28;20215;-67
2022/12/04 08:58:42;;;;;;;24.63;13.77;;;1.60;99.90;;;;;;5047283;28;20305;-67
2022/12/04 09:01:12;;;;;;;25.57;13.90;;;1.60;99.90;;;;;;5045062;28;20238;-72
2022/12/04 09:03:40;;;;;;;26.13;13.83;;;1.60;99.90;;;;;;5049156;28;20225;-73
2022/12/04 09:06:08;;;;;;;24.67;14.27;;;1.60;99.90;;;;;;5036976;28;20207;-74
2022/12/04 09:08:35;;;;;;;24.70;14.20;;;1.60;99.90;;;;;;5051349;28;20202;-73
2022/12/04 09:11:06;;;;;;;26.73;13.90;;;1.60;99.90;;;;;;5056654;28;20197;-69
2022/12/04 09:13:33;;;;;;;26.83;14.73;;;1.60;99.90;;;;;;5065466;28;20205;-67
2022/12/04 09:16:04;;;;;;;25.00;14.20;;;1.60;99.90;;;;;;5063381;28;20198;-71
2022/12/04 09:18:32;;;;;;;27.80;14.40;;;1.60;99.90;;;;;;5053053;28;20198;-69
2022/12/04 09:21:01;;;;;;;30.53;15.10;;;1.60;99.90;;;;;;5050176;28;20210;-70
2022/12/04 09:23:30;;;;;;;26.23;14.50;;;1.60;99.90;;;;;;5038054;28;20233;-70
2022/12/04 09:25:57;;;;;;;25.63;14.37;;;1.60;99.90;;;;;;5043755;28;20601;-69
2022/12/04 09:28:24;;;;;;;23.93;13.70;;;1.70;99.90;;;;;;5046065;28;20800;-69
2022/12/04 09:30:58;;;;;;;30.53;14.07;;;1.60;99.90;;;;;;5045912;28;20237;-71
2022/12/04 09:33:26;;;;;;;24.63;14.70;;;1.60;99.90;;;;;;5051340;28;20234;-70
2022/12/04 09:35:54;;;;;;;27.37;14.73;;;1.60;99.90;;;;;;5052712;28;20198;-68
2022/12/04 09:38:21;;;;;;;23.10;13.93;;;1.70;99.90;;;;;;5056187;28;20201;-70
2022/12/04 09:40:54;;;;;;;24.47;14.50;;;1.70;99.90;;;;;;5053413;28;20228;-70
2022/12/04 09:43:30;;;;;;;26.50;15.33;;;1.70;99.90;;;;;;5059145;28;20218;-70
2022/12/04 09:46:02;;;;;;;24.07;14.23;;;1.80;99.90;;;;;;5044952;28;20205;-73
2022/12/04 09:48:34;;;;;;;24.33;13.37;;;1.80;99.90;;;;;;5041368;28;20198;-70
2022/12/04 09:51:04;;;;;;;22.37;12.60;;;1.80;99.90;;;;;;5049574;28;20569;-71
2022/12/04 09:53:41;;;;;;;25.30;15.03;;;1.80;99.90;;;;;;5048258;28;20562;-72
2022/12/04 09:56:12;;;;;;;26.33;13.63;;;1.80;99.90;;;;;;5061088;28;20190;-68
2022/12/04 09:58:42;;;;;;;25.10;13.60;;;1.80;99.90;;;;;;5063148;28;20641;-67
2022/12/04 10:01:20;;;;;;;28.07;15.20;;;1.80;99.90;;;;;;5049798;28;20254;-68
2022/12/04 10:03:47;;;;;;;25.80;15.00;;;1.70;99.90;;;;;;5043013;28;20221;-70
2022/12/04 10:06:20;;;;;;;25.13;15.60;;;1.80;99.90;;;;;;5050549;28;20329;-72
2022/12/04 10:08:53;;;;;;;27.00;14.43;;;1.90;99.90;;;;;;5034526;28;20214;-70
2022/12/04 10:11:30;;;;;;;29.70;14.70;;;1.90;99.90;;;;;;5041649;28;20218;-71
2022/12/04 10:14:10;;;;;;;25.87;14.00;;;1.90;99.90;;;;;;5052463;28;20198;-69
2022/12/04 10:16:49;;;;;;;24.53;14.50;;;1.90;99.90;;;;;;5048895;28;20217;-69
2022/12/04 10:19:25;;;;;;;29.93;14.20;;;1.90;99.90;;;;;;5050202;28;20206;-70
2022/12/04 10:22:01;;;;;;;27.27;14.53;;;1.90;99.90;;;;;;5043704;28;20233;-70
2022/12/04 10:24:36;;;;;;;25.87;14.97;;;1.90;99.90;;;;;;5060619;28;20193;-69
2022/12/04 10:27:09;;;;;;;24.33;13.63;;;1.90;99.90;;;;;;5062368;28;20200;-68
2022/12/04 10:29:40;;;;;;;25.73;14.97;;;2.00;99.90;;;;;;5041276;28;20210;-70
2022/12/04 10:32:18;;;;;;;26.33;14.47;;;2.00;99.90;;;;;;5047077;28;20217;-70
2022/12/04 10:34:46;;;;;;;22.87;13.77;;;2.00;99.90;;;;;;5051384;28;20669;-69
2022/12/04 10:37:15;;;;;;;24.93;14.10;;;2.10;99.90;;;;;;5048165;28;20280;-68
2022/12/04 10:39:48;;;;;;;27.07;14.33;;;2.10;99.90;;;;;;5040738;28;20214;-72
2022/12/04 10:42:24;;;;;;;21.43;13.10;;;2.10;99.90;;;;;;5041343;28;20206;-71
2022/12/04 10:44:51;;;;;;;26.63;14.80;;;2.10;99.90;;;;;;5031376;28;20222;-72
2022/12/04 10:47:18;;;;;;;25.73;15.27;;;2.10;99.90;;;;;;5042114;28;20268;-71
2022/12/04 10:49:45;;;;;;;20.90;13.70;;;2.20;99.90;;;;;;5049081;28;20250;-67
2022/12/04 10:52:13;;;;;;;26.00;14.50;;;2.10;99.90;;;;;;5050193;28;20210;-69
2022/12/04 10:54:47;;;;;;;23.13;14.23;;;2.10;99.90;;;;;;5047326;28;20209;-69
2022/12/04 10:57:14;;;;;;;27.00;14.73;;;2.20;99.90;;;;;;5050652;28;20712;-66
2022/12/04 10:59:49;;;;;;;31.33;16.17;;;2.20;99.90;;;;;;5053768;28;20218;-71
2022/12/04 11:02:20;;;;;;;28.40;16.47;;;2.20;99.90;;;;;;5058295;28;20245;-69
2022/12/04 11:04:54;;;;;;;29.53;16.33;;;2.30;99.90;;;;;;5054712;28;20247;-71
2022/12/04 11:07:24;;;;;;;24.27;15.03;;;2.40;99.90;;;;;;5050391;28;20213;-72
2022/12/04 11:09:56;;;;;;;25.03;14.57;;;2.50;99.90;;;;;;5049130;28;20217;-71
2022/12/04 11:12:23;;;;;;;27.03;16.17;;;2.60;99.90;;;;;;5046922;28;20209;-72
2022/12/04 11:15:00;;;;;;;20.40;12.07;;;2.60;99.90;;;;;;5050275;28;20698;-73
2022/12/04 11:17:27;;;;;;;22.83;14.53;;;2.60;99.90;;;;;;5049879;28;20205;-73
2022/12/04 11:19:59;;;;;;;25.27;14.23;;;2.60;99.90;;;;;;5052328;28;20205;-71
2022/12/04 11:22:27;;;;;;;23.97;14.67;;;2.50;99.90;;;;;;5029974;28;20206;-71
2022/12/04 11:24:56;;;;;;;24.50;13.97;;;2.60;99.90;;;;;;5041975;28;20237;-70
2022/12/04 11:27:30;;;;;;;21.37;14.17;;;2.60;99.90;;;;;;5048523;28;20206;-72
2022/12/04 11:29:58;;;;;;;23.23;14.43;;;2.60;99.90;;;;;;5046932;28;20216;-71
2022/12/04 11:32:28;;;;;;;27.13;14.47;;;2.70;99.90;;;;;;5048456;28;20198;-71
2022/12/04 11:34:59;;;;;;;22.73;14.43;;;2.70;99.90;;;;;;5049841;28;20210;-72
2022/12/04 11:37:32;;;;;;;21.27;12.90;;;2.70;99.90;;;;;;5049495;28;20209;-72
2022/12/04 11:39:59;;;;;;;24.27;14.43;;;2.70;99.90;;;;;;5049813;28;20194;-71
2022/12/04 11:42:28;;;;;;;19.63;13.13;;;2.60;99.90;;;;;;5048924;28;20667;-71
2022/12/04 11:44:57;;;;;;;22.97;13.83;;;2.70;99.90;;;;;;5047214;28;20221;-68
2022/12/04 11:47:26;;;;;;;23.17;14.67;;;2.70;99.90;;;;;;5048981;28;20658;-71
2022/12/04 11:50:11;;;;;;;24.20;14.83;;;2.60;99.90;;;;;;5046963;28;20548;-71
2022/12/04 11:52:52;;;;;;;22.73;14.17;;;2.60;99.90;;;;;;5047879;28;20251;-72
2022/12/04 11:55:24;;;;;;;24.30;14.57;;;2.60;99.90;;;;;;5049884;28;20284;-72
2022/12/04 11:58:02;;;;;;;25.60;14.67;;;2.70;99.90;;;;;;5049260;28;20210;-70
2022/12/04 12:00:32;;;;;;;22.80;14.77;;;2.70;99.90;;;;;;5047741;28;20226;-71
2022/12/04 12:03:11;;;;;;;28.33;14.33;;;2.70;99.90;;;;;;5047208;28;20728;-70
2022/12/04 12:06:00;;;;;;;25.33;14.47;;;2.70;99.90;;;;;;5049418;28;20591;-72
2022/12/04 12:08:37;;;;;;;26.20;14.70;;;2.60;99.90;;;;;;5049224;28;20216;-72
2022/12/04 12:11:11;;;;;;;22.00;14.40;;;2.60;99.90;;;;;;5040311;28;20210;-71
2022/12/04 12:13:47;;;;;;;26.60;15.37;;;2.50;99.90;;;;;;5049078;28;20202;-68
2022/12/04 12:16:24;;;;;;;25.50;16.00;;;2.60;99.90;;;;;;5060940;28;20200;-70
2022/12/04 12:19:21;;;;;;;24.50;14.70;;;2.60;99.90;;;;;;5052028;28;20203;-69
2022/12/04 12:21:58;;;;;;;23.73;14.50;;;2.60;99.90;;;;;;5043661;28;20213;-73
2022/12/04 12:24:29;;;;;;;23.80;14.27;;;2.70;99.90;;;;;;5045777;28;20283;-71
2022/12/04 12:27:08;;;;;;;26.13;15.87;;;2.70;99.90;;;;;;5049147;28;20206;-71
2022/12/04 12:29:50;;;;;;;22.63;15.33;;;2.70;99.90;;;;;;5048988;28;20206;-73
2022/12/04 12:32:39;;;;;;;25.33;15.50;;;2.70;99.90;;;;;;5047839;28;20212;-73
2022/12/04 12:35:17;;;;;;;27.17;15.30;;;2.70;99.90;;;;;;5048827;28;20202;-72
2022/12/04 12:37:49;;;;;;;24.80;14.73;;;2.70;99.90;;;;;;5049202;28;20209;-72
2022/12/04 12:40:28;;;;;;;24.07;14.20;;;2.70;99.90;;;;;;5052300;28;20801;-71
2022/12/04 12:43:00;;;;;;;24.37;14.87;;;2.70;99.90;;;;;;5036006;28;20209;-71
2022/12/04 12:45:33;;;;;;;22.27;14.60;;;2.70;99.90;;;;;;5051312;28;20218;-72
2022/12/04 12:48:07;;;;;;;23.10;14.33;;;2.70;99.90;;;;;;5039429;28;20213;-72
2022/12/04 12:50:43;;;;;;;23.27;14.53;;;2.80;99.90;;;;;;5052830;28;20197;-71
2022/12/04 12:53:13;;;;;;;23.13;14.03;;;2.80;99.90;;;;;;5053899;28;20202;-71
2022/12/04 12:55:47;;;;;;;25.07;15.20;;;2.80;99.90;;;;;;5053390;28;20202;-71
2022/12/04 12:58:21;;;;;;;24.60;14.50;;;2.80;99.90;;;;;;5048680;28;20209;-70
2022/12/04 13:00:54;;;;;;;21.20;14.27;;;2.80;99.90;;;;;;5047774;28;20590;-68
2022/12/04 13:03:29;;;;;;;21.03;12.80;;;2.80;99.90;;;;;;5053064;28;20748;-70
2022/12/04 13:06:01;;;;;;;20.30;13.60;;;2.80;99.90;;;;;;5052292;28;20217;-68